sensor_id;sensor_type;location;lat;lon;timestamp;temperature;humidity
18218;DHT22;9234;49.344;11.120;2022-12-29T00:01:11;7.10;99.90
18218;DHT22;9234;49.344;11.120;2022-12-29T00:03:40;7.10;99.90
18218;DHT22;9234;49.344;11.120;2022-12-29T00:06:08;7.10;99.90
18218;DHT22;9234;49.344;11.120;2022-12-29T00:08:37;7.20;99.90
18218;DHT22;9234;49.344;11.120;2022-12-29T00:11:10;7.20;99.90
18218;DHT22;9234;49.344;11.120;2022-12-29T00:13:40;7.20;99.90
18218;DHT22;9234;49.344;11.120;2022-12-29T00:16:27;7.30;99.90
18218;DHT22;9234;49.344;11.120;2022-12-29T00:18:57;7.30;99.90
18218;DHT22;9234;49.344;11.120;2022-12-29T00:21:26;7.30;99.90
18218;DHT22;9234;49.344;11.120;2022-12-29T00:24:16;7.40;99.90
18218;DHT22;9234;49.344;11.120;2022-12-29T00:27:12;7.40;99.90
18218;DHT22;9234;49.344;11.120;2022-12-29T00:29:59;7.40;99.90
18218;DHT22;9234;49.344;11.120;2022-12-29T00:32:45;7.40;99.90
18218;DHT22;9234;49.344;11.120;2022-12-29T00:35:33;7.40;99.90
18218;DHT22;9234;49.344;11.120;2022-12-29T00:38:08;7.40;99.90
18218;DHT22;9234;49.344;11.120;2022-12-29T00:40:54;7.50;99.90
18218;DHT22;9234;49.344;11.120;2022-12-29T00:43:41;7.50;99.90
18218;DHT22;9234;49.344;11.120;2022-12-29T00:46:27;7.50;99.90
18218;DHT22;9234;49.344;11.120;2022-12-29T00:48:56;7.50;99.90
18218;DHT22;9234;49.344;11.120;2022-12-29T00:51:43;7.50;99.90
18218;DHT22;9234;49.344;11.120;2022-12-29T00:54:12;7.50;99.90
18218;DHT22;9234;49.344;11.120;2022-12-29T00:56:46;7.50;99.90
18218;DHT22;9234;49.344;11.120;2022-12-29T00:59:18;7.50;99.90
18218;DHT22;9234;49.344;11.120;2022-12-29T01:01:47;7.50;99.90
18218;DHT22;9234;49.344;11.120;2022-12-29T01:04:16;7.50;99.90
18218;DHT22;9234;49.344;11.120;2022-12-29T01:06:44;7.50;99.90
18218;DHT22;9234;49.344;11.120;2022-12-29T01:09:15;7.50;99.90
18218;DHT22;9234;49.344;11.120;2022-12-29T01:12:02;7.50;99.90
18218;DHT22;9234;49.344;11.120;2022-12-29T01:14:32;7.60;99.90
18218;DHT22;9234;49.344;11.120;2022-12-29T01:17:02;7.60;99.90
18218;DHT22;9234;49.344;11.120;2022-12-29T01:19:32;7.60;99.90
18218;DHT22;9234;49.344;11.120;2022-12-29T01:22:00;7.60;99.90
18218;DHT22;9234;49.344;11.120;2022-12-29T01:24:29;7.60;99.90
18218;DHT22;9234;49.344;11.120;2022-12-29T01:26:57;7.70;99.90
18218;DHT22;9234;49.344;11.120;2022-12-29T01:29:25;7.70;99.90
18218;DHT22;9234;49.344;11.120;2022-12-29T01:31:55;7.70;99.90
18218;DHT22;9234;49.344;11.120;2022-12-29T01:34:23;7.80;99.90
18218;DHT22;9234;49.344;11.120;2022-12-29T01:36:51;7.80;99.90
18218;DHT22;9234;49.344;11.120;2022-12-29T01:39:19;7.80;99.90
18218;DHT22;9234;49.344;11.120;2022-12-29T01:41:47;7.80;99.90
18218;DHT22;9234;49.344;11.120;2022-12-29T01:44:51;7.90;99.90
18218;DHT22;9234;49.344;11.120;2022-12-29T01:47:28;7.90;99.90
18218;DHT22;9234;49.344;11.120;2022-12-29T01:50:04;7.90;99.90
18218;DHT22;9234;49.344;11.120;2022-12-29T01:52:38;7.90;99.90
18218;DHT22;9234;49.344;11.120;2022-12-29T01:55:12;7.90;99.90
18218;DHT22;9234;49.344;11.120;2022-12-29T01:57:44;8.00;99.90
18218;DHT22;9234;49.344;11.120;2022-12-29T02:00:17;8.00;99.90
18218;DHT22;9234;49.344;11.120;2022-12-29T02:02:51;8.00;99.90
18218;DHT22;9234;49.344;11.120;2022-12-29T02:05:27;8.00;99.90
18218;DHT22;9234;49.344;11.120;2022-12-29T02:08:00;8.00;99.90
18218;DHT22;9234;49.344;11.120;2022-12-29T02:10:32;8.00;99.90
18218;DHT22;9234;49.344;11.120;2022-12-29T02:13:02;8.00;99.90
18218;DHT22;9234;49.344;11.120;2022-12-29T02:15:37;8.10;99.90
18218;DHT22;9234;49.344;11.120;2022-12-29T02:18:22;8.10;99.90
18218;DHT22;9234;49.344;11.120;2022-12-29T02:21:23;8.10;99.90
18218;DHT22;9234;49.344;11.120;2022-12-29T02:24:40;8.10;99.90
18218;DHT22;9234;49.344;11.120;2022-12-29T02:27:52;8.20;99.90
18218;DHT22;9234;49.344;11.120;2022-12-29T02:30:54;8.20;99.90
18218;DHT22;9234;49.344;11.120;2022-12-29T02:33:45;8.20;99.90
18218;DHT22;9234;49.344;11.120;2022-12-29T02:36:28;8.20;99.90
18218;DHT22;9234;49.344;11.120;2022-12-29T02:39:12;8.20;99.90
18218;DHT22;9234;49.344;11.120;2022-12-29T02:41:54;8.30;99.90
18218;DHT22;9234;49.344;11.120;2022-12-29T02:44:34;8.30;99.90
18218;DHT22;9234;49.344;11.120;2022-12-29T02:47:19;8.30;99.90
18218;DHT22;9234;49.344;11.120;2022-12-29T02:49:59;8.30;99.90
18218;DHT22;9234;49.344;11.120;2022-12-29T02:52:36;8.30;99.90
18218;DHT22;9234;49.344;11.120;2022-12-29T02:55:10;8.30;99.90
18218;DHT22;9234;49.344;11.120;2022-12-29T02:57:38;8.30;99.90
18218;DHT22;9234;49.344;11.120;2022-12-29T03:00:09;8.30;99.90
18218;DHT22;9234;49.344;11.120;2022-12-29T03:03:05;8.30;99.90
18218;DHT22;9234;49.344;11.120;2022-12-29T03:05:57;8.30;99.90
18218;DHT22;9234;49.344;11.120;2022-12-29T03:08:49;8.30;99.90
18218;DHT22;9234;49.344;11.120;2022-12-29T03:11:33;8.30;99.90
18218;DHT22;9234;49.344;11.120;2022-12-29T03:14:27;8.30;99.90
18218;DHT22;9234;49.344;11.120;2022-12-29T03:17:23;8.30;99.90
18218;DHT22;9234;49.344;11.120;2022-12-29T03:20:01;8.30;99.90
18218;DHT22;9234;49.344;11.120;2022-12-29T03:22:39;8.30;99.90
18218;DHT22;9234;49.344;11.120;2022-12-29T03:25:19;8.30;99.90
18218;DHT22;9234;49.344;11.120;2022-12-29T03:27:54;8.30;99.90
18218;DHT22;9234;49.344;11.120;2022-12-29T03:30:27;8.30;99.90
18218;DHT22;9234;49.344;11.120;2022-12-29T03:33:00;8.30;99.90
18218;DHT22;9234;49.344;11.120;2022-12-29T03:35:36;8.30;99.90
18218;DHT22;9234;49.344;11.120;2022-12-29T03:38:13;8.30;99.90
18218;DHT22;9234;49.344;11.120;2022-12-29T03:40:48;8.30;99.90
18218;DHT22;9234;49.344;11.120;2022-12-29T03:43:20;8.30;99.90
18218;DHT22;9234;49.344;11.120;2022-12-29T03:45:49;8.30;99.90
18218;DHT22;9234;49.344;11.120;2022-12-29T03:48:17;8.30;99.90
18218;DHT22;9234;49.344;11.120;2022-12-29T03:50:48;8.30;99.90
18218;DHT22;9234;49.344;11.120;2022-12-29T03:53:17;8.30;99.90
18218;DHT22;9234;49.344;11.120;2022-12-29T03:55:45;8.30;99.90
18218;DHT22;9234;49.344;11.120;2022-12-29T03:58:13;8.20;99.90
18218;DHT22;9234;49.344;11.120;2022-12-29T04:01:08;8.20;99.90
18218;DHT22;9234;49.344;11.120;2022-12-29T04:03:38;8.20;99.90
18218;DHT22;9234;49.344;11.120;2022-12-29T04:06:08;8.20;99.90
18218;DHT22;9234;49.344;11.120;2022-12-29T04:08:45;8.20;99.90
18218;DHT22;9234;49.344;11.120;2022-12-29T04:11:13;8.20;99.90
18218;DHT22;9234;49.344;11.120;2022-12-29T04:13:44;8.20;99.90
18218;DHT22;9234;49.344;11.120;2022-12-29T04:16:16;8.20;99.90
18218;DHT22;9234;49.344;11.120;2022-12-29T04:18:44;8.20;99.90
18218;DHT22;9234;49.344;11.120;2022-12-29T04:21:14;8.20;99.90
18218;DHT22;9234;49.344;11.120;2022-12-29T04:23:44;8.20;99.90
18218;DHT22;9234;49.344;11.120;2022-12-29T04:26:13;8.20;99.90
18218;DHT22;9234;49.344;11.120;2022-12-29T04:28:53;8.20;99.90
18218;DHT22;9234;49.344;11.120;2022-12-29T04:31:38;8.20;99.90
18218;DHT22;9234;49.344;11.120;2022-12-29T04:34:06;8.20;99.90
18218;DHT22;9234;49.344;11.120;2022-12-29T04:36:36;8.20;99.90
18218;DHT22;9234;49.344;11.120;2022-12-29T04:39:06;8.20;99.90
18218;DHT22;9234;49.344;11.120;2022-12-29T04:41:36;8.10;99.90
18218;DHT22;9234;49.344;11.120;2022-12-29T04:44:07;8.10;99.90
18218;DHT22;9234;49.344;11.120;2022-12-29T04:46:54;8.10;99.90
18218;DHT22;9234;49.344;11.120;2022-12-29T04:49:45;8.10;99.90
18218;DHT22;9234;49.344;11.120;2022-12-29T04:52:37;8.10;99.90
18218;DHT22;9234;49.344;11.120;2022-12-29T04:55:08;8.10;99.90
18218;DHT22;9234;49.344;11.120;2022-12-29T04:57:36;8.10;99.90
18218;DHT22;9234;49.344;11.120;2022-12-29T05:00:07;8.20;99.90
18218;DHT22;9234;49.344;11.120;2022-12-29T05:02:37;8.20;99.90
18218;DHT22;9234;49.344;11.120;2022-12-29T05:05:06;8.20;99.90
18218;DHT22;9234;49.344;11.120;2022-12-29T05:07:41;8.20;99.90
18218;DHT22;9234;49.344;11.120;2022-12-29T05:10:10;8.20;99.90
18218;DHT22;9234;49.344;11.120;2022-12-29T05:12:40;8.20;99.90
18218;DHT22;9234;49.344;11.120;2022-12-29T05:15:10;8.10;99.90
18218;DHT22;9234;49.344;11.120;2022-12-29T05:17:38;8.10;99.90
18218;DHT22;9234;49.344;11.120;2022-12-29T05:20:08;8.00;99.90
18218;DHT22;9234;49.344;11.120;2022-12-29T05:22:37;8.00;99.90
18218;DHT22;9234;49.344;11.120;2022-12-29T05:25:08;8.00;99.90
18218;DHT22;9234;49.344;11.120;2022-12-29T05:27:49;8.00;99.90
18218;DHT22;9234;49.344;11.120;2022-12-29T05:30:39;8.00;99.90
18218;DHT22;9234;49.344;11.120;2022-12-29T05:33:07;8.00;99.90
18218;DHT22;9234;49.344;11.120;2022-12-29T05:35:39;8.10;99.90
18218;DHT22;9234;49.344;11.120;2022-12-29T05:38:07;8.10;99.90
18218;DHT22;9234;49.344;11.120;2022-12-29T05:40:36;8.10;99.90
18218;DHT22;9234;49.344;11.120;2022-12-29T05:43:13;8.10;99.90
18218;DHT22;9234;49.344;11.120;2022-12-29T05:46:11;8.10;99.90
18218;DHT22;9234;49.344;11.120;2022-12-29T05:49:05;8.00;99.90
18218;DHT22;9234;49.344;11.120;2022-12-29T05:51:45;8.00;99.90
18218;DHT22;9234;49.344;11.120;2022-12-29T05:54:13;7.90;99.90
18218;DHT22;9234;49.344;11.120;2022-12-29T05:56:43;7.90;99.90
18218;DHT22;9234;49.344;11.120;2022-12-29T05:59:11;7.80;99.90
18218;DHT22;9234;49.344;11.120;2022-12-29T06:01:41;7.80;99.90
18218;DHT22;9234;49.344;11.120;2022-12-29T06:04:11;7.70;99.90
18218;DHT22;9234;49.344;11.120;2022-12-29T06:06:40;7.70;99.90
18218;DHT22;9234;49.344;11.120;2022-12-29T06:09:14;7.70;99.90
18218;DHT22;9234;49.344;11.120;2022-12-29T06:11:44;7.60;99.90
18218;DHT22;9234;49.344;11.120;2022-12-29T06:14:12;7.60;99.90
18218;DHT22;9234;49.344;11.120;2022-12-29T06:16:41;7.50;99.90
18218;DHT22;9234;49.344;11.120;2022-12-29T06:19:12;7.50;99.90
18218;DHT22;9234;49.344;11.120;2022-12-29T06:21:40;7.40;99.90
18218;DHT22;9234;49.344;11.120;2022-12-29T06:24:09;7.40;99.90
18218;DHT22;9234;49.344;11.120;2022-12-29T06:26:38;7.30;99.90
18218;DHT22;9234;49.344;11.120;2022-12-29T06:29:09;7.30;99.90
18218;DHT22;9234;49.344;11.120;2022-12-29T06:31:37;7.20;99.90
18218;DHT22;9234;49.344;11.120;2022-12-29T06:34:06;7.20;99.90
18218;DHT22;9234;49.344;11.120;2022-12-29T06:36:36;7.10;99.90
18218;DHT22;9234;49.344;11.120;2022-12-29T06:39:04;7.10;99.90
18218;DHT22;9234;49.344;11.120;2022-12-29T06:41:33;7.10;99.90
18218;DHT22;9234;49.344;11.120;2022-12-29T06:44:22;7.00;99.90
18218;DHT22;9234;49.344;11.120;2022-12-29T06:46:56;7.00;99.90
18218;DHT22;9234;49.344;11.120;2022-12-29T06:49:24;6.90;99.90
18218;DHT22;9234;49.344;11.120;2022-12-29T06:51:52;6.90;99.90
18218;DHT22;9234;49.344;11.120;2022-12-29T06:54:20;6.90;99.90
18218;DHT22;9234;49.344;11.120;2022-12-29T06:56:49;6.80;99.90
18218;DHT22;9234;49.344;11.120;2022-12-29T06:59:17;6.80;99.90
18218;DHT22;9234;49.344;11.120;2022-12-29T07:01:46;6.80;99.90
18218;DHT22;9234;49.344;11.120;2022-12-29T07:04:15;6.80;99.90
18218;DHT22;9234;49.344;11.120;2022-12-29T07:06:43;6.70;99.90
18218;DHT22;9234;49.344;11.120;2022-12-29T07:09:11;6.70;99.90
18218;DHT22;9234;49.344;11.120;2022-12-29T07:11:40;6.70;99.90
18218;DHT22;9234;49.344;11.120;2022-12-29T07:14:10;6.60;99.90
18218;DHT22;9234;49.344;11.120;2022-12-29T07:16:38;6.60;99.90
18218;DHT22;9234;49.344;11.120;2022-12-29T07:19:08;6.60;99.90
18218;DHT22;9234;49.344;11.120;2022-12-29T07:21:37;6.60;99.90
18218;DHT22;9234;49.344;11.120;2022-12-29T07:24:13;6.60;99.90
18218;DHT22;9234;49.344;11.120;2022-12-29T07:26:41;6.70;99.90
18218;DHT22;9234;49.344;11.120;2022-12-29T07:29:09;6.70;99.90
18218;DHT22;9234;49.344;11.120;2022-12-29T07:31:37;6.70;99.90
18218;DHT22;9234;49.344;11.120;2022-12-29T07:34:05;6.80;99.90
18218;DHT22;9234;49.344;11.120;2022-12-29T07:36:36;6.80;99.90
18218;DHT22;9234;49.344;11.120;2022-12-29T07:39:04;6.90;99.90
18218;DHT22;9234;49.344;11.120;2022-12-29T07:41:32;7.00;99.90
18218;DHT22;9234;49.344;11.120;2022-12-29T07:44:03;7.00;99.90
18218;DHT22;9234;49.344;11.120;2022-12-29T07:46:54;7.10;99.90
18218;DHT22;9234;49.344;11.120;2022-12-29T07:49:26;7.20;99.90
18218;DHT22;9234;49.344;11.120;2022-12-29T07:51:54;7.30;99.90
18218;DHT22;9234;49.344;11.120;2022-12-29T07:54:22;7.40;99.90
18218;DHT22;9234;49.344;11.120;2022-12-29T07:56:51;7.40;99.90
18218;DHT22;9234;49.344;11.120;2022-12-29T07:59:19;7.50;99.90
18218;DHT22;9234;49.344;11.120;2022-12-29T08:01:47;7.50;99.90
18218;DHT22;9234;49.344;11.120;2022-12-29T08:04:16;7.60;99.90
18218;DHT22;9234;49.344;11.120;2022-12-29T08:06:46;7.60;99.90
18218;DHT22;9234;49.344;11.120;2022-12-29T08:09:14;7.60;99.90
18218;DHT22;9234;49.344;11.120;2022-12-29T08:11:48;7.60;99.90
18218;DHT22;9234;49.344;11.120;2022-12-29T08:14:16;7.60;99.90
18218;DHT22;9234;49.344;11.120;2022-12-29T08:16:45;7.70;99.90
18218;DHT22;9234;49.344;11.120;2022-12-29T08:19:14;7.70;99.90
18218;DHT22;9234;49.344;11.120;2022-12-29T08:21:42;7.70;99.90
18218;DHT22;9234;49.344;11.120;2022-12-29T08:24:11;7.80;99.90
18218;DHT22;9234;49.344;11.120;2022-12-29T08:26:40;7.90;99.90
18218;DHT22;9234;49.344;11.120;2022-12-29T08:29:08;7.90;99.90
18218;DHT22;9234;49.344;11.120;2022-12-29T08:31:36;8.00;99.90
18218;DHT22;9234;49.344;11.120;2022-12-29T08:34:05;8.00;99.90
18218;DHT22;9234;49.344;11.120;2022-12-29T08:36:33;8.10;99.90
18218;DHT22;9234;49.344;11.120;2022-12-29T08:39:01;8.10;99.90
18218;DHT22;9234;49.344;11.120;2022-12-29T08:41:31;8.20;99.90
18218;DHT22;9234;49.344;11.120;2022-12-29T08:43:59;8.20;99.90
18218;DHT22;9234;49.344;11.120;2022-12-29T08:46:28;8.30;99.90
18218;DHT22;9234;49.344;11.120;2022-12-29T08:48:57;8.30;99.90
18218;DHT22;9234;49.344;11.120;2022-12-29T08:51:25;8.40;99.90
18218;DHT22;9234;49.344;11.120;2022-12-29T08:53:53;8.40;99.90
18218;DHT22;9234;49.344;11.120;2022-12-29T08:56:22;8.50;99.90
18218;DHT22;9234;49.344;11.120;2022-12-29T08:58:56;8.60;99.90
18218;DHT22;9234;49.344;11.120;2022-12-29T09:01:26;8.70;99.90
18218;DHT22;9234;49.344;11.120;2022-12-29T09:03:55;8.70;99.90
18218;DHT22;9234;49.344;11.120;2022-12-29T09:06:43;8.80;99.90
18218;DHT22;9234;49.344;11.120;2022-12-29T09:09:13;9.00;99.90
18218;DHT22;9234;49.344;11.120;2022-12-29T09:11:41;9.10;99.90
18218;DHT22;9234;49.344;11.120;2022-12-29T09:14:11;9.20;99.90
18218;DHT22;9234;49.344;11.120;2022-12-29T09:16:41;9.40;99.90
18218;DHT22;9234;49.344;11.120;2022-12-29T09:19:26;9.50;99.90
18218;DHT22;9234;49.344;11.120;2022-12-29T09:21:55;9.70;99.90
18218;DHT22;9234;49.344;11.120;2022-12-29T09:24:23;9.80;99.90
18218;DHT22;9234;49.344;11.120;2022-12-29T09:26:52;9.80;99.90
18218;DHT22;9234;49.344;11.120;2022-12-29T09:29:21;9.90;99.90
18218;DHT22;9234;49.344;11.120;2022-12-29T09:31:50;10.00;99.90
18218;DHT22;9234;49.344;11.120;2022-12-29T09:34:18;10.00;99.90
18218;DHT22;9234;49.344;11.120;2022-12-29T09:36:46;10.10;99.90
18218;DHT22;9234;49.344;11.120;2022-12-29T09:39:14;10.10;99.90
18218;DHT22;9234;49.344;11.120;2022-12-29T09:41:46;10.20;99.90
18218;DHT22;9234;49.344;11.120;2022-12-29T09:44:26;10.30;99.90
18218;DHT22;9234;49.344;11.120;2022-12-29T09:47:09;10.50;99.90
18218;DHT22;9234;49.344;11.120;2022-12-29T09:49:44;10.50;99.90
18218;DHT22;9234;49.344;11.120;2022-12-29T09:52:21;10.60;99.90
18218;DHT22;9234;49.344;11.120;2022-12-29T09:54:57;10.70;99.90
18218;DHT22;9234;49.344;11.120;2022-12-29T09:57:38;10.70;99.90
18218;DHT22;9234;49.344;11.120;2022-12-29T10:00:14;10.80;99.90
18218;DHT22;9234;49.344;11.120;2022-12-29T10:02:48;10.90;99.90
18218;DHT22;9234;49.344;11.120;2022-12-29T10:05:30;10.90;99.90
18218;DHT22;9234;49.344;11.120;2022-12-29T10:08:22;11.00;99.90
18218;DHT22;9234;49.344;11.120;2022-12-29T10:11:03;11.10;99.90
18218;DHT22;9234;49.344;11.120;2022-12-29T10:13:55;11.10;99.90
18218;DHT22;9234;49.344;11.120;2022-12-29T10:16:50;11.20;99.90
18218;DHT22;9234;49.344;11.120;2022-12-29T10:19:37;11.20;99.90
18218;DHT22;9234;49.344;11.120;2022-12-29T10:22:36;11.20;99.90
18218;DHT22;9234;49.344;11.120;2022-12-29T10:25:15;11.30;99.90
18218;DHT22;9234;49.344;11.120;2022-12-29T10:27:48;11.40;99.90
18218;DHT22;9234;49.344;11.120;2022-12-29T10:30:17;11.40;99.90
18218;DHT22;9234;49.344;11.120;2022-12-29T10:32:51;11.40;99.90
18218;DHT22;9234;49.344;11.120;2022-12-29T10:35:24;11.50;99.90
18218;DHT22;9234;49.344;11.120;2022-12-29T10:37:58;11.50;99.90
18218;DHT22;9234;49.344;11.120;2022-12-29T10:40:36;11.50;99.90
18218;DHT22;9234;49.344;11.120;2022-12-29T10:43:20;11.60;99.90
18218;DHT22;9234;49.344;11.120;2022-12-29T10:45:53;11.60;99.90
18218;DHT22;9234;49.344;11.120;2022-12-29T10:48:28;11.60;99.90
18218;DHT22;9234;49.344;11.120;2022-12-29T10:51:01;11.60;99.90
18218;DHT22;9234;49.344;11.120;2022-12-29T10:53:37;11.60;99.90
18218;DHT22;9234;49.344;11.120;2022-12-29T10:56:15;11.60;99.90
18218;DHT22;9234;49.344;11.120;2022-12-29T10:58:55;11.60;99.90
18218;DHT22;9234;49.344;11.120;2022-12-29T11:01:31;11.60;99.90
18218;DHT22;9234;49.344;11.120;2022-12-29T11:04:16;11.60;99.90
18218;DHT22;9234;49.344;11.120;2022-12-29T11:06:56;11.60;99.90
18218;DHT22;9234;49.344;11.120;2022-12-29T11:09:28;11.70;99.90
18218;DHT22;9234;49.344;11.120;2022-12-29T11:12:22;11.60;99.90
18218;DHT22;9234;49.344;11.120;2022-12-29T11:15:11;11.60;99.90
18218;DHT22;9234;49.344;11.120;2022-12-29T11:17:46;11.60;99.90
18218;DHT22;9234;49.344;11.120;2022-12-29T11:20:28;11.60;99.90
18218;DHT22;9234;49.344;11.120;2022-12-29T11:22:59;11.70;99.90
18218;DHT22;9234;49.344;11.120;2022-12-29T11:25:27;11.80;99.90
18218;DHT22;9234;49.344;11.120;2022-12-29T11:27:57;11.80;99.90
18218;DHT22;9234;49.344;11.120;2022-12-29T11:30:29;11.90;99.90
18218;DHT22;9234;49.344;11.120;2022-12-29T11:33:02;12.00;99.90
18218;DHT22;9234;49.344;11.120;2022-12-29T11:35:36;12.00;99.90
18218;DHT22;9234;49.344;11.120;2022-12-29T11:38:18;12.10;99.90
18218;DHT22;9234;49.344;11.120;2022-12-29T11:40:48;12.20;99.90
18218;DHT22;9234;49.344;11.120;2022-12-29T11:43:25;12.20;99.90
18218;DHT22;9234;49.344;11.120;2022-12-29T11:46:00;12.30;99.90
18218;DHT22;9234;49.344;11.120;2022-12-29T11:48:38;12.30;99.90
18218;DHT22;9234;49.344;11.120;2022-12-29T11:51:10;12.40;99.90
18218;DHT22;9234;49.344;11.120;2022-12-29T11:53:43;12.40;99.90
18218;DHT22;9234;49.344;11.120;2022-12-29T11:56:17;12.50;99.90
18218;DHT22;9234;49.344;11.120;2022-12-29T11:58:50;12.60;99.90
18218;DHT22;9234;49.344;11.120;2022-12-29T12:01:23;12.60;99.90
18218;DHT22;9234;49.344;11.120;2022-12-29T12:04:02;12.70;99.90
18218;DHT22;9234;49.344;11.120;2022-12-29T12:06:43;12.80;99.90
18218;DHT22;9234;49.344;11.120;2022-12-29T12:09:18;12.90;99.90
18218;DHT22;9234;49.344;11.120;2022-12-29T12:11:52;13.00;99.90
18218;DHT22;9234;49.344;11.120;2022-12-29T12:14:28;13.10;99.90
18218;DHT22;9234;49.344;11.120;2022-12-29T12:17:26;13.20;99.90
18218;DHT22;9234;49.344;11.120;2022-12-29T12:20:14;13.20;99.90
18218;DHT22;9234;49.344;11.120;2022-12-29T12:22:58;13.30;99.90
18218;DHT22;9234;49.344;11.120;2022-12-29T12:25:43;13.40;99.90
18218;DHT22;9234;49.344;11.120;2022-12-29T12:28:21;13.50;99.90
18218;DHT22;9234;49.344;11.120;2022-12-29T12:31:06;13.50;99.90
18218;DHT22;9234;49.344;11.120;2022-12-29T12:33:46;13.50;99.90
18218;DHT22;9234;49.344;11.120;2022-12-29T12:36:43;13.50;99.90
18218;DHT22;9234;49.344;11.120;2022-12-29T12:39:26;13.50;99.90
18218;DHT22;9234;49.344;11.120;2022-12-29T12:42:13;13.50;99.90
18218;DHT22;9234;49.344;11.120;2022-12-29T12:45:07;13.50;99.90
18218;DHT22;9234;49.344;11.120;2022-12-29T12:48:01;13.60;99.90
18218;DHT22;9234;49.344;11.120;2022-12-29T12:50:49;13.60;99.90
18218;DHT22;9234;49.344;11.120;2022-12-29T12:53:36;13.60;99.90
18218;DHT22;9234;49.344;11.120;2022-12-29T12:59:40;13.60;99.90
18218;DHT22;9234;49.344;11.120;2022-12-29T13:02:30;13.60;99.90
18218;DHT22;9234;49.344;11.120;2022-12-29T13:05:24;13.50;99.90
18218;DHT22;9234;49.344;11.120;2022-12-29T13:08:19;13.40;99.90
18218;DHT22;9234;49.344;11.120;2022-12-29T13:11:07;13.40;99.90
18218;DHT22;9234;49.344;11.120;2022-12-29T13:14:10;13.40;99.90
18218;DHT22;9234;49.344;11.120;2022-12-29T13:16:52;13.40;99.90
18218;DHT22;9234;49.344;11.120;2022-12-29T13:19:34;13.40;99.90
18218;DHT22;9234;49.344;11.120;2022-12-29T13:22:09;13.40;99.90
18218;DHT22;9234;49.344;11.120;2022-12-29T13:24:54;13.30;99.90
18218;DHT22;9234;49.344;11.120;2022-12-29T13:27:38;13.30;99.90
18218;DHT22;9234;49.344;11.120;2022-12-29T13:30:17;13.30;99.90
18218;DHT22;9234;49.344;11.120;2022-12-29T13:32:55;13.20;99.90
18218;DHT22;9234;49.344;11.120;2022-12-29T13:35:41;13.10;99.90
18218;DHT22;9234;49.344;11.120;2022-12-29T13:38:22;13.10;99.90
18218;DHT22;9234;49.344;11.120;2022-12-29T13:40:55;13.10;99.90
18218;DHT22;9234;49.344;11.120;2022-12-29T13:43:27;13.00;99.90
18218;DHT22;9234;49.344;11.120;2022-12-29T13:46:05;13.10;99.90
18218;DHT22;9234;49.344;11.120;2022-12-29T13:48:39;13.10;99.90
18218;DHT22;9234;49.344;11.120;2022-12-29T13:51:11;13.10;99.90
18218;DHT22;9234;49.344;11.120;2022-12-29T13:53:55;13.10;99.90
18218;DHT22;9234;49.344;11.120;2022-12-29T13:56:34;13.00;99.90
18218;DHT22;9234;49.344;11.120;2022-12-29T13:59:14;13.00;99.90
18218;DHT22;9234;49.344;11.120;2022-12-29T14:01:53;13.00;99.90
18218;DHT22;9234;49.344;11.120;2022-12-29T14:04:29;12.90;99.90
18218;DHT22;9234;49.344;11.120;2022-12-29T14:07:02;12.90;99.90
18218;DHT22;9234;49.344;11.120;2022-12-29T14:09:43;12.80;99.90
18218;DHT22;9234;49.344;11.120;2022-12-29T14:12:35;12.70;99.90
18218;DHT22;9234;49.344;11.120;2022-12-29T14:15:16;12.60;99.90
18218;DHT22;9234;49.344;11.120;2022-12-29T14:18:05;12.50;99.90
18218;DHT22;9234;49.344;11.120;2022-12-29T14:20:48;12.40;99.90
18218;DHT22;9234;49.344;11.120;2022-12-29T14:23:45;12.30;99.90
18218;DHT22;9234;49.344;11.120;2022-12-29T14:26:17;12.30;99.90
18218;DHT22;9234;49.344;11.120;2022-12-29T14:32:37;12.10;99.90
18218;DHT22;9234;49.344;11.120;2022-12-29T14:35:39;12.10;99.90
18218;DHT22;9234;49.344;11.120;2022-12-29T14:38:17;12.00;99.90
18218;DHT22;9234;49.344;11.120;2022-12-29T14:41:17;12.00;99.90
18218;DHT22;9234;49.344;11.120;2022-12-29T14:43:56;11.90;99.90
18218;DHT22;9234;49.344;11.120;2022-12-29T14:46:54;11.90;99.90
18218;DHT22;9234;49.344;11.120;2022-12-29T14:49:26;11.80;99.90
18218;DHT22;9234;49.344;11.120;2022-12-29T14:52:07;11.80;99.90
18218;DHT22;9234;49.344;11.120;2022-12-29T14:54:51;11.70;99.90
18218;DHT22;9234;49.344;11.120;2022-12-29T14:57:34;11.70;99.90
18218;DHT22;9234;49.344;11.120;2022-12-29T15:00:12;11.70;99.90
18218;DHT22;9234;49.344;11.120;2022-12-29T15:02:47;11.70;99.90
18218;DHT22;9234;49.344;11.120;2022-12-29T15:05:30;11.60;99.90
18218;DHT22;9234;49.344;11.120;2022-12-29T15:08:04;11.60;99.90
18218;DHT22;9234;49.344;11.120;2022-12-29T15:10:39;11.50;99.90
18218;DHT22;9234;49.344;11.120;2022-12-29T15:13:17;11.50;99.90
18218;DHT22;9234;49.344;11.120;2022-12-29T15:15:50;11.40;99.90
18218;DHT22;9234;49.344;11.120;2022-12-29T15:18:24;11.40;99.90
18218;DHT22;9234;49.344;11.120;2022-12-29T15:20:55;11.40;99.90
18218;DHT22;9234;49.344;11.120;2022-12-29T15:23:27;11.30;99.90
18218;DHT22;9234;49.344;11.120;2022-12-29T15:25:58;11.30;99.90
18218;DHT22;9234;49.344;11.120;2022-12-29T15:28:37;11.30;99.90
18218;DHT22;9234;49.344;11.120;2022-12-29T15:31:12;11.30;99.90
18218;DHT22;9234;49.344;11.120;2022-12-29T15:33:44;11.20;99.90
18218;DHT22;9234;49.344;11.120;2022-12-29T15:36:18;11.20;99.90
18218;DHT22;9234;49.344;11.120;2022-12-29T15:38:50;11.20;99.90
18218;DHT22;9234;49.344;11.120;2022-12-29T15:41:25;11.20;99.90
18218;DHT22;9234;49.344;11.120;2022-12-29T15:44:24;11.10;99.90
18218;DHT22;9234;49.344;11.120;2022-12-29T15:46:56;11.10;99.90
18218;DHT22;9234;49.344;11.120;2022-12-29T15:49:25;11.10;99.90
18218;DHT22;9234;49.344;11.120;2022-12-29T15:51:58;11.10;99.90
18218;DHT22;9234;49.344;11.120;2022-12-29T15:54:32;11.00;99.90
18218;DHT22;9234;49.344;11.120;2022-12-29T15:57:01;11.00;99.90
18218;DHT22;9234;49.344;11.120;2022-12-29T15:59:31;10.90;99.90
18218;DHT22;9234;49.344;11.120;2022-12-29T16:02:01;10.90;99.90
18218;DHT22;9234;49.344;11.120;2022-12-29T16:04:38;10.90;99.90
18218;DHT22;9234;49.344;11.120;2022-12-29T16:07:30;10.80;99.90
18218;DHT22;9234;49.344;11.120;2022-12-29T16:10:26;10.80;99.90
18218;DHT22;9234;49.344;11.120;2022-12-29T16:13:14;10.80;99.90
18218;DHT22;9234;49.344;11.120;2022-12-29T16:15:47;10.70;99.90
18218;DHT22;9234;49.344;11.120;2022-12-29T16:18:23;10.70;99.90
18218;DHT22;9234;49.344;11.120;2022-12-29T16:20:55;10.70;99.90
18218;DHT22;9234;49.344;11.120;2022-12-29T16:23:26;10.70;99.90
18218;DHT22;9234;49.344;11.120;2022-12-29T16:25:59;10.70;99.90
18218;DHT22;9234;49.344;11.120;2022-12-29T16:28:34;10.70;99.90
18218;DHT22;9234;49.344;11.120;2022-12-29T16:31:06;10.70;99.90
18218;DHT22;9234;49.344;11.120;2022-12-29T16:33:46;10.70;99.90
18218;DHT22;9234;49.344;11.120;2022-12-29T16:36:30;10.70;99.90
18218;DHT22;9234;49.344;11.120;2022-12-29T16:42:43;10.70;99.90
18218;DHT22;9234;49.344;11.120;2022-12-29T16:49:02;10.70;99.90
18218;DHT22;9234;49.344;11.120;2022-12-29T16:51:32;10.60;99.90